Airport View

Enter AWOS ICAO identifier for current METAR.

ex. KFNL

KLHM 191235Z AUTO 16007KT 10SM SCT070 SCT120 10/09 A2971 RMK AO1

19 May 2019 12:53

Frequency: 124.25

Phone: 916-645-0698

Other Area AWOS: KAUN - KBAB - KMCC - KMYV

TAF AMD KBAB 182204Z 1822/2001 16012G18KT 8000 -RA FEW008 BKN015 BKN030 QNH2987INS BECMG 1823/1824 15010G15KT 6000 -RA BR SCT008 BKN010 BKN020 QNH2974INS BECMG 1915/1916 16010G15KT 8000 -RA FEW008 SCT015 BKN030 QNH2978INS TX13/1822Z TN10/1913Z LAST NO AMDS AFT 1822 NEXT 1917